EKVD weather

Public forecast

Using degrees Celsius for public forecast. Weather courtesy of forecast.io.

Current aviation weather report (METAR) for Kolding Vamdrup Airfield

Retrieved 2020/08/09 16:20 UTC (8 minutes ago):

EKVD 091620Z AUTO 08009KT //// ///////// 28/15 Q1019

Closest aviation forecast (TAF) to Kolding Vamdrup Airfield

Closest forecast is Skrydstrup Air Base, 13.1 nm (24.3 km) S. Retrieved 2020/08/09 15:30 UTC (58 minutes ago):

TAF EKSP 091425Z 0915/1015 07007KT 9999 FEW120